Time;durP1;ratioP1;P1;durP2;ratioP2;P2;SDS_P1;SDS_P2;PMS_P1;PMS_P2;Temp;Humidity;BMP_temperature;BMP_pressure;BME280_temperature;BME280_humidity;BME280_pressure;Samples;Min_cycle;Max_cycle;Signal;HPM_P1;HPM_P2
2023/05/21 00:02:08;;;;;;;7.65;4.88;;;14.60;99.90;;;;;;5097921;28;20036;-62
2023/05/21 00:04:34;;;;;;;7.38;4.40;;;14.60;99.90;;;;;;5088757;28;20047;-62
2023/05/21 00:07:00;;;;;;;5.85;4.70;;;14.60;99.90;;;;;;5092140;28;20044;-62
2023/05/21 00:09:25;;;;;;;7.18;4.55;;;14.60;99.90;;;;;;5090746;28;20055;-62
2023/05/21 00:11:51;;;;;;;7.38;4.22;;;14.60;99.90;;;;;;5089696;28;20059;-62
2023/05/21 00:14:16;;;;;;;6.53;4.65;;;14.50;99.90;;;;;;5091929;28;20052;-63
2023/05/21 00:16:43;;;;;;;6.88;4.60;;;14.50;99.90;;;;;;5091641;28;20036;-63
2023/05/21 00:19:09;;;;;;;5.82;4.53;;;14.40;99.90;;;;;;5088448;28;20036;-63
2023/05/21 00:21:34;;;;;;;7.55;4.47;;;14.50;99.90;;;;;;5082645;28;20243;-62
2023/05/21 00:24:00;;;;;;;7.68;4.50;;;14.40;99.90;;;;;;5109946;28;20031;-62
2023/05/21 00:26:26;;;;;;;6.88;5.03;;;14.40;99.90;;;;;;5112344;28;20047;-62
2023/05/21 00:28:51;;;;;;;6.00;4.45;;;14.30;99.90;;;;;;5097183;28;20479;-62
2023/05/21 00:31:17;;;;;;;7.55;4.85;;;14.30;99.90;;;;;;5088931;28;20523;-63
2023/05/21 00:33:43;;;;;;;6.70;4.70;;;14.30;99.90;;;;;;5076685;28;20036;-63
2023/05/21 00:36:13;;;;;;;6.32;4.68;;;14.30;99.90;;;;;;5083353;28;20459;-62
2023/05/21 00:38:45;;;;;;;8.52;4.63;;;14.30;99.90;;;;;;5091466;28;20111;-63
2023/05/21 00:41:11;;;;;;;6.97;4.60;;;14.30;99.90;;;;;;5090920;28;20393;-62
2023/05/21 00:43:40;;;;;;;6.95;4.57;;;14.30;99.90;;;;;;5090714;28;20040;-62
2023/05/21 00:46:10;;;;;;;10.20;5.43;;;14.30;99.90;;;;;;5084410;28;20454;-62
2023/05/21 00:48:37;;;;;;;7.45;4.88;;;14.20;99.90;;;;;;5092091;28;20036;-62
2023/05/21 00:51:04;;;;;;;6.90;4.93;;;14.30;99.90;;;;;;5089198;28;20501;-63
2023/05/21 00:53:30;;;;;;;7.82;5.18;;;14.30;99.90;;;;;;5091312;28;20036;-62
2023/05/21 00:55:56;;;;;;;6.35;4.70;;;14.30;99.90;;;;;;5090915;28;20039;-63
2023/05/21 00:58:22;;;;;;;8.98;5.05;;;14.30;99.90;;;;;;5099169;28;20485;-63
2023/05/21 01:00:48;;;;;;;7.82;5.30;;;14.20;99.90;;;;;;5073457;28;20040;-62
2023/05/21 01:03:15;;;;;;;7.65;5.15;;;14.20;99.90;;;;;;5073660;28;20039;-62
2023/05/21 01:05:43;;;;;;;5.53;4.85;;;14.20;99.90;;;;;;5086355;28;20044;-62
2023/05/21 01:08:09;;;;;;;7.85;5.00;;;14.20;99.90;;;;;;5090809;28;20896;-62
2023/05/21 01:13:03;;;;;;;8.57;5.47;;;14.10;99.90;;;;;;5025809;28;20053;-66
2023/05/21 01:15:29;;;;;;;8.35;5.07;;;14.20;99.90;;;;;;5017305;28;20532;-66
2023/05/21 01:17:55;;;;;;;7.65;4.63;;;14.00;99.90;;;;;;5011346;28;20487;-67
2023/05/21 01:20:23;;;;;;;8.20;5.00;;;14.10;99.90;;;;;;5011681;28;20450;-66
2023/05/21 01:22:55;;;;;;;8.13;4.78;;;14.20;99.90;;;;;;5018819;28;20503;-66
2023/05/21 01:25:22;;;;;;;8.90;5.20;;;14.20;99.90;;;;;;5028929;28;20165;-66
2023/05/21 01:27:48;;;;;;;8.88;5.30;;;14.20;99.90;;;;;;5036904;28;20041;-66
2023/05/21 01:30:15;;;;;;;7.57;4.82;;;14.20;99.90;;;;;;5020756;28;20380;-66
2023/05/21 01:32:48;;;;;;;9.77;5.00;;;14.20;99.90;;;;;;5036414;28;20495;-66
2023/05/21 01:35:21;;;;;;;7.68;4.93;;;14.10;99.90;;;;;;5028930;28;20549;-66
2023/05/21 01:38:03;;;;;;;6.43;4.55;;;14.10;99.90;;;;;;5028132;28;20032;-66
2023/05/21 01:40:32;;;;;;;7.78;5.07;;;14.20;99.90;;;;;;5039334;28;20032;-66
2023/05/21 01:42:58;;;;;;;8.88;4.60;;;14.10;99.90;;;;;;5040936;28;20061;-66
2023/05/21 01:45:26;;;;;;;6.38;4.70;;;14.20;99.90;;;;;;5040027;28;20048;-66
2023/05/21 01:47:54;;;;;;;7.03;4.90;;;14.10;99.90;;;;;;5034015;28;20068;-66
2023/05/21 01:50:22;;;;;;;7.63;5.20;;;14.10;99.90;;;;;;5041932;28;20033;-66
2023/05/21 01:52:53;;;;;;;7.15;4.97;;;14.10;99.90;;;;;;5033537;28;20068;-66
2023/05/21 01:55:23;;;;;;;6.80;4.70;;;14.10;99.90;;;;;;5023654;28;20180;-66
2023/05/21 01:57:51;;;;;;;7.70;5.63;;;14.10;99.90;;;;;;5034252;28;20120;-66
2023/05/21 02:00:18;;;;;;;9.68;4.80;;;14.00;99.90;;;;;;5033017;28;20120;-66
2023/05/21 02:02:43;;;;;;;9.35;5.40;;;14.00;99.90;;;;;;5036652;28;20045;-67
2023/05/21 02:05:09;;;;;;;7.00;5.18;;;14.00;99.90;;;;;;5041515;28;20048;-66
2023/05/21 02:07:36;;;;;;;8.00;5.05;;;14.00;99.90;;;;;;5038943;28;20084;-66
2023/05/21 02:10:02;;;;;;;9.05;5.25;;;14.00;99.90;;;;;;5016046;28;20048;-66
2023/05/21 02:12:28;;;;;;;9.18;4.97;;;14.00;99.90;;;;;;5034819;28;20042;-66
2023/05/21 02:14:55;;;;;;;9.95;5.05;;;14.00;99.90;;;;;;5035917;28;20473;-66
2023/05/21 02:17:21;;;;;;;7.80;4.82;;;13.90;99.90;;;;;;5029892;28;20037;-66
2023/05/21 02:19:47;;;;;;;9.52;5.28;;;13.90;99.90;;;;;;5035538;28;20044;-66
2023/05/21 02:22:12;;;;;;;8.80;4.90;;;13.90;99.90;;;;;;5026939;28;20030;-66
2023/05/21 02:24:38;;;;;;;8.10;5.03;;;13.90;99.90;;;;;;5032847;28;20049;-66
2023/05/21 02:27:05;;;;;;;9.23;5.10;;;13.90;99.90;;;;;;5033872;28;20041;-66
2023/05/21 02:29:31;;;;;;;9.88;5.53;;;13.90;99.90;;;;;;5032369;28;20049;-66
2023/05/21 02:31:56;;;;;;;8.82;5.47;;;13.90;99.90;;;;;;5037533;28;20032;-66
2023/05/21 02:34:23;;;;;;;8.02;5.03;;;13.80;99.90;;;;;;5032986;28;20041;-66
2023/05/21 02:36:51;;;;;;;7.28;5.47;;;13.80;99.90;;;;;;5036078;28;20091;-66
2023/05/21 02:39:18;;;;;;;7.38;4.70;;;13.80;99.90;;;;;;5019114;28;20057;-67
2023/05/21 02:41:44;;;;;;;10.07;5.25;;;13.80;99.90;;;;;;5033001;28;20116;-67
2023/05/21 02:44:10;;;;;;;9.70;5.85;;;13.80;99.90;;;;;;5022330;28;20034;-66
2023/05/21 02:46:35;;;;;;;8.25;5.97;;;13.70;99.90;;;;;;5033239;28;20037;-66
2023/05/21 02:49:01;;;;;;;9.82;5.57;;;13.70;99.90;;;;;;5035116;28;20041;-66
2023/05/21 02:51:27;;;;;;;8.48;5.75;;;13.70;99.90;;;;;;5036271;28;20040;-66
2023/05/21 02:53:52;;;;;;;7.93;5.60;;;13.70;99.90;;;;;;5032802;28;20048;-65
2023/05/21 02:56:18;;;;;;;7.47;5.30;;;13.70;99.90;;;;;;5032926;28;20041;-66
2023/05/21 02:58:44;;;;;;;8.38;5.40;;;13.70;99.90;;;;;;5033584;28;20037;-66
2023/05/21 03:01:10;;;;;;;7.53;5.15;;;13.60;99.90;;;;;;5029972;28;20039;-66
2023/05/21 03:03:35;;;;;;;8.05;5.78;;;13.60;99.90;;;;;;5034887;28;20123;-66
2023/05/21 03:06:01;;;;;;;10.35;6.10;;;13.60;99.90;;;;;;5025410;28;20125;-67
2023/05/21 03:08:27;;;;;;;9.48;6.15;;;13.60;99.90;;;;;;5022734;28;20033;-66
2023/05/21 03:10:52;;;;;;;11.75;6.25;;;13.60;99.90;;;;;;5027565;28;20118;-67
2023/05/21 03:13:18;;;;;;;8.57;5.88;;;13.60;99.90;;;;;;5022527;28;20500;-66
2023/05/21 03:15:45;;;;;;;9.48;6.25;;;13.60;99.90;;;;;;5026260;28;20120;-66
2023/05/21 03:18:11;;;;;;;9.98;6.40;;;13.50;99.90;;;;;;5034606;28;20041;-66
2023/05/21 03:20:42;;;;;;;10.63;6.00;;;13.50;99.90;;;;;;5037536;28;20033;-66
2023/05/21 03:23:08;;;;;;;7.82;5.28;;;13.50;99.90;;;;;;5034279;28;20128;-66
2023/05/21 03:25:35;;;;;;;8.68;6.00;;;13.40;99.90;;;;;;5033324;28;20155;-66
2023/05/21 03:28:01;;;;;;;12.48;6.30;;;13.50;99.90;;;;;;5041419;28;20037;-66
2023/05/21 03:30:26;;;;;;;8.95;5.50;;;13.50;99.90;;;;;;5035245;28;20748;-67
2023/05/21 03:32:52;;;;;;;8.88;5.95;;;13.50;99.90;;;;;;5031509;28;20045;-67
2023/05/21 03:35:18;;;;;;;10.07;6.28;;;13.50;99.90;;;;;;5031703;28;20049;-67
2023/05/21 03:37:43;;;;;;;8.82;6.22;;;13.50;99.90;;;;;;5030801;28;20067;-66
2023/05/21 03:40:09;;;;;;;11.45;6.47;;;13.50;99.90;;;;;;5037992;28;20037;-67
2023/05/21 03:42:35;;;;;;;10.07;6.30;;;13.50;99.90;;;;;;5037038;28;20124;-66
2023/05/21 03:45:02;;;;;;;11.50;6.78;;;13.50;99.90;;;;;;5023988;28;20087;-67
2023/05/21 03:47:27;;;;;;;11.25;6.57;;;13.50;99.90;;;;;;5031582;28;20049;-67
2023/05/21 03:49:53;;;;;;;11.70;6.68;;;13.50;99.90;;;;;;5034388;28;20040;-67
2023/05/21 03:52:18;;;;;;;12.32;6.88;;;13.60;99.90;;;;;;5032814;28;20490;-66
2023/05/21 03:54:44;;;;;;;11.82;6.85;;;13.50;99.90;;;;;;5030850;28;20094;-67
2023/05/21 03:57:10;;;;;;;12.93;7.10;;;13.50;99.90;;;;;;5027121;28;20399;-67
2023/05/21 03:59:35;;;;;;;10.10;7.05;;;13.50;99.90;;;;;;5023950;28;20032;-66
2023/05/21 04:02:01;;;;;;;11.25;6.43;;;13.50;99.90;;;;;;5024332;28;20056;-67
2023/05/21 04:04:28;;;;;;;11.63;6.85;;;13.40;99.90;;;;;;5027220;28;20039;-67
2023/05/21 04:06:54;;;;;;;13.18;6.68;;;13.40;99.90;;;;;;5029532;28;20661;-66
2023/05/21 04:09:20;;;;;;;9.98;6.18;;;13.40;99.90;;;;;;5037185;28;20045;-67
2023/05/21 04:11:46;;;;;;;9.75;6.40;;;13.40;99.90;;;;;;5022767;28;20439;-67
2023/05/21 04:14:12;;;;;;;12.57;6.75;;;13.40;99.90;;;;;;5033243;28;20037;-67
2023/05/21 04:16:38;;;;;;;11.57;6.75;;;13.40;99.90;;;;;;5035361;28;20183;-66
2023/05/21 04:19:05;;;;;;;11.63;6.75;;;13.40;99.90;;;;;;5018614;28;20195;-67
2023/05/21 04:21:31;;;;;;;12.18;7.20;;;13.40;99.90;;;;;;5033389;28;20518;-66
2023/05/21 04:23:59;;;;;;;9.00;6.25;;;13.40;99.90;;;;;;5031597;28;20041;-67
2023/05/21 04:26:25;;;;;;;10.20;6.43;;;13.40;99.90;;;;;;5043168;28;20068;-67
2023/05/21 04:28:52;;;;;;;10.30;6.47;;;13.40;99.90;;;;;;5040342;28;20072;-67
2023/05/21 04:31:18;;;;;;;9.85;6.05;;;13.40;99.90;;;;;;5034894;28;20052;-67
2023/05/21 04:33:44;;;;;;;9.98;6.13;;;13.40;99.90;;;;;;5035356;28;20037;-67
2023/05/21 04:36:11;;;;;;;9.63;6.32;;;13.40;99.90;;;;;;5032376;28;20120;-67
2023/05/21 04:38:37;;;;;;;9.75;6.10;;;13.40;99.90;;;;;;5023558;28;20030;-67
2023/05/21 04:41:03;;;;;;;8.10;5.90;;;13.40;99.90;;;;;;5034294;28;20125;-67
2023/05/21 04:43:29;;;;;;;11.32;6.13;;;13.40;99.90;;;;;;5032582;28;20124;-67
2023/05/21 04:45:55;;;;;;;11.07;6.22;;;13.40;99.90;;;;;;5031151;28;20033;-67
2023/05/21 04:48:23;;;;;;;10.65;6.10;;;13.40;99.90;;;;;;5038141;28;20045;-67
2023/05/21 04:50:49;;;;;;;10.43;5.68;;;13.40;99.90;;;;;;5031720;28;20033;-67
2023/05/21 04:53:15;;;;;;;9.23;5.57;;;13.40;99.90;;;;;;5013946;28;20048;-67
2023/05/21 04:55:41;;;;;;;10.50;6.10;;;13.40;99.90;;;;;;5033404;28;20077;-67
2023/05/21 04:58:07;;;;;;;11.80;6.15;;;13.40;99.90;;;;;;5034635;28;20086;-67
2023/05/21 05:00:33;;;;;;;12.80;6.35;;;13.40;99.90;;;;;;5030975;28;20399;-66
2023/05/21 05:02:58;;;;;;;9.57;5.97;;;13.40;99.90;;;;;;5034376;28;20037;-66
2023/05/21 05:05:24;;;;;;;8.85;5.32;;;13.40;99.90;;;;;;5031310;28;20091;-66
2023/05/21 05:07:50;;;;;;;9.70;5.90;;;13.40;99.90;;;;;;5032637;28;20099;-66
2023/05/21 05:10:16;;;;;;;12.10;5.60;;;13.40;99.90;;;;;;5039700;28;20034;-66
2023/05/21 05:12:41;;;;;;;8.40;5.90;;;13.50;99.90;;;;;;5016684;28;20394;-66
2023/05/21 05:15:07;;;;;;;11.18;5.88;;;13.40;99.90;;;;;;5036168;28;20037;-67
2023/05/21 05:17:34;;;;;;;8.13;5.15;;;13.40;99.90;;;;;;5043355;28;20079;-67
2023/05/21 05:20:00;;;;;;;10.80;5.30;;;13.40;99.90;;;;;;5042590;28;20041;-67
2023/05/21 05:22:25;;;;;;;12.77;5.57;;;13.50;99.90;;;;;;5037823;28;20052;-67
2023/05/21 05:24:51;;;;;;;8.05;5.22;;;13.50;99.90;;;;;;5034286;28;20048;-67
2023/05/21 05:27:17;;;;;;;11.43;6.25;;;13.50;99.90;;;;;;5045872;28;20123;-67
2023/05/21 05:29:44;;;;;;;9.43;5.75;;;13.50;99.90;;;;;;5029212;28;20564;-66
2023/05/21 05:32:09;;;;;;;10.65;6.10;;;13.50;99.90;;;;;;5036976;28;20040;-67
2023/05/21 05:34:36;;;;;;;10.27;5.60;;;13.50;99.90;;;;;;5046158;28;20086;-67
2023/05/21 05:37:03;;;;;;;10.15;5.65;;;13.50;99.90;;;;;;5054740;28;20033;-67
2023/05/21 05:39:28;;;;;;;8.65;5.70;;;13.60;99.90;;;;;;5035164;28;20050;-67
2023/05/21 05:41:54;;;;;;;9.85;5.53;;;13.60;99.90;;;;;;5030252;28;20033;-67
2023/05/21 05:44:20;;;;;;;9.48;5.18;;;13.60;99.90;;;;;;5040524;28;20151;-67
2023/05/21 05:46:45;;;;;;;9.75;5.03;;;13.60;99.90;;;;;;5039217;28;20033;-67
2023/05/21 05:49:12;;;;;;;9.50;5.50;;;13.60;99.90;;;;;;5023135;28;20038;-67
2023/05/21 05:51:38;;;;;;;10.95;5.00;;;13.60;99.90;;;;;;5014649;28;20053;-66
2023/05/21 05:54:03;;;;;;;10.73;4.82;;;13.60;99.90;;;;;;5027460;28;20438;-66
2023/05/21 05:56:29;;;;;;;9.23;4.68;;;13.60;99.90;;;;;;5035041;28;20072;-67
2023/05/21 05:58:55;;;;;;;11.20;5.45;;;13.60;99.90;;;;;;5042083;28;20083;-67
2023/05/21 06:01:23;;;;;;;11.05;5.53;;;13.70;99.90;;;;;;5030655;28;20041;-67
2023/05/21 06:03:49;;;;;;;7.78;4.82;;;13.60;99.90;;;;;;5042225;28;20037;-66
2023/05/21 06:06:15;;;;;;;8.82;4.90;;;13.70;99.90;;;;;;5045801;28;20407;-67
2023/05/21 06:08:41;;;;;;;8.35;4.97;;;13.70;99.90;;;;;;5034089;28;20044;-67
2023/05/21 06:11:07;;;;;;;8.73;4.75;;;13.70;99.90;;;;;;5043705;28;20029;-67
2023/05/21 06:13:33;;;;;;;11.02;5.25;;;13.70;99.90;;;;;;5035539;28;20040;-66
2023/05/21 06:15:58;;;;;;;7.72;4.75;;;13.80;99.90;;;;;;5031785;28;20045;-66
2023/05/21 06:18:24;;;;;;;8.63;5.07;;;13.80;99.90;;;;;;5044014;28;20490;-66
2023/05/21 06:20:50;;;;;;;9.73;5.25;;;13.90;99.90;;;;;;5036943;28;20041;-66
2023/05/21 06:23:15;;;;;;;9.07;4.88;;;14.00;99.90;;;;;;5032848;28;20032;-67
2023/05/21 06:25:41;;;;;;;8.65;4.75;;;14.00;99.90;;;;;;5035181;28;20781;-66
2023/05/21 06:28:06;;;;;;;8.80;5.70;;;14.10;99.90;;;;;;5033110;28;20037;-66
2023/05/21 06:30:32;;;;;;;8.57;4.78;;;14.10;99.90;;;;;;5036312;28;20124;-67
2023/05/21 06:32:57;;;;;;;11.23;5.45;;;14.20;99.90;;;;;;5041095;28;20048;-68
2023/05/21 06:35:23;;;;;;;9.77;4.82;;;14.20;99.90;;;;;;5036724;28;20087;-67
2023/05/21 06:37:49;;;;;;;9.38;5.07;;;14.20;99.90;;;;;;5037642;28;20038;-67
2023/05/21 06:40:14;;;;;;;9.57;5.07;;;14.20;99.90;;;;;;5032887;28;20033;-67
2023/05/21 06:42:40;;;;;;;11.73;4.80;;;14.30;99.90;;;;;;5037728;28;20112;-67
2023/05/21 06:45:06;;;;;;;8.85;4.97;;;14.30;99.90;;;;;;5039238;28;20155;-67
2023/05/21 06:47:32;;;;;;;9.73;4.50;;;14.30;99.90;;;;;;5032902;28;20038;-67
2023/05/21 06:49:58;;;;;;;8.40;4.32;;;14.40;99.90;;;;;;5024931;28;20060;-67
2023/05/21 06:52:25;;;;;;;13.00;4.85;;;14.40;99.90;;;;;;5032716;28;20042;-67
2023/05/21 06:54:51;;;;;;;9.73;4.70;;;14.40;99.90;;;;;;5036080;28;20042;-68
2023/05/21 06:57:16;;;;;;;9.55;5.07;;;14.40;99.90;;;;;;5018294;28;20087;-68
2023/05/21 06:59:42;;;;;;;9.00;4.90;;;14.50;99.90;;;;;;5053301;28;20083;-67
2023/05/21 07:02:08;;;;;;;10.18;4.25;;;14.50;99.90;;;;;;5039792;28;20406;-68
2023/05/21 07:04:36;;;;;;;8.02;4.97;;;14.60;99.90;;;;;;5029083;28;20044;-67
2023/05/21 07:07:03;;;;;;;10.40;4.95;;;14.70;99.90;;;;;;5039901;28;20175;-67
2023/05/21 07:09:29;;;;;;;10.63;5.38;;;14.70;99.90;;;;;;5048004;28;20036;-67
2023/05/21 07:11:55;;;;;;;10.60;5.10;;;14.80;99.90;;;;;;5055317;22;20049;-66
2023/05/21 07:14:20;;;;;;;9.43;4.60;;;14.80;99.90;;;;;;5015308;28;20037;-65
2023/05/21 07:16:46;;;;;;;9.63;4.93;;;14.80;99.90;;;;;;5014417;28;20406;-65
2023/05/21 07:19:12;;;;;;;8.25;4.53;;;14.90;99.90;;;;;;5030397;28;20046;-65
2023/05/21 07:21:38;;;;;;;10.05;4.65;;;15.00;99.90;;;;;;5034716;28;20038;-65
2023/05/21 07:24:04;;;;;;;11.48;5.35;;;15.00;99.90;;;;;;5031339;28;20120;-65
2023/05/21 07:26:29;;;;;;;7.82;4.75;;;15.00;99.90;;;;;;5032561;28;20041;-65
2023/05/21 07:28:55;;;;;;;10.82;5.30;;;15.00;99.90;;;;;;5030105;28;20439;-65
2023/05/21 07:31:20;;;;;;;14.02;5.05;;;15.00;99.90;;;;;;5031216;28;20079;-65
2023/05/21 07:33:46;;;;;;;9.52;5.00;;;15.10;99.90;;;;;;5031056;28;20387;-65
2023/05/21 07:36:12;;;;;;;8.18;5.35;;;15.20;99.90;;;;;;5030448;28;20037;-63
2023/05/21 07:38:38;;;;;;;8.43;4.75;;;15.30;99.90;;;;;;5030028;28;20116;-65
2023/05/21 07:41:04;;;;;;;12.32;5.07;;;15.30;99.90;;;;;;5030985;28;20040;-64
2023/05/21 07:43:30;;;;;;;10.43;5.50;;;15.40;99.90;;;;;;5028586;28;20029;-63
2023/05/21 07:45:56;;;;;;;8.30;4.60;;;15.40;99.90;;;;;;5031343;28;20042;-64
2023/05/21 07:48:21;;;;;;;7.85;4.65;;;15.40;99.90;;;;;;5031282;28;20041;-63
2023/05/21 07:50:48;;;;;;;9.20;5.13;;;15.60;99.90;;;;;;5031517;28;20033;-64
2023/05/21 07:53:14;;;;;;;8.20;5.40;;;15.60;99.90;;;;;;5022607;28;20539;-64
2023/05/21 07:55:46;;;;;;;8.93;5.38;;;15.60;99.90;;;;;;5030317;28;20041;-64
2023/05/21 07:58:16;;;;;;;6.85;5.30;;;15.70;99.90;;;;;;5030856;28;20487;-64
2023/05/21 08:00:46;;;;;;;7.07;4.85;;;15.70;99.90;;;;;;5032179;28;20045;-65
2023/05/21 08:03:15;;;;;;;7.35;5.10;;;15.80;99.90;;;;;;5030453;28;20079;-64
2023/05/21 08:05:43;;;;;;;8.25;4.85;;;15.70;99.90;;;;;;5031182;28;20045;-65
2023/05/21 08:08:09;;;;;;;7.95;5.15;;;15.70;99.90;;;;;;5030200;28;20041;-64
2023/05/21 08:10:35;;;;;;;10.13;5.13;;;15.70;99.90;;;;;;5028343;28;20112;-63
2023/05/21 08:13:01;;;;;;;9.25;5.35;;;15.70;99.90;;;;;;5031645;28;20048;-63
2023/05/21 08:15:27;;;;;;;8.88;5.05;;;15.70;99.90;;;;;;5031176;28;20132;-63
2023/05/21 08:17:52;;;;;;;9.20;4.97;;;15.70;99.90;;;;;;5028189;28;20043;-64
2023/05/21 08:20:19;;;;;;;11.85;4.93;;;15.80;99.90;;;;;;5031600;28;20091;-62
2023/05/21 08:22:44;;;;;;;6.65;4.88;;;15.80;99.90;;;;;;5031125;28;20049;-63
2023/05/21 08:25:10;;;;;;;8.25;5.13;;;15.90;99.90;;;;;;5027412;28;20038;-64
2023/05/21 08:27:36;;;;;;;7.75;4.95;;;16.00;99.90;;;;;;5025371;28;20441;-63
2023/05/21 08:30:01;;;;;;;8.73;5.07;;;16.10;99.90;;;;;;5028542;28;20059;-63
2023/05/21 08:32:27;;;;;;;8.70;5.57;;;16.20;99.90;;;;;;5023980;28;20088;-63
2023/05/21 08:34:52;;;;;;;8.73;5.00;;;16.30;99.90;;;;;;5029012;28;21282;-64
2023/05/21 08:37:20;;;;;;;11.20;5.95;;;16.30;99.90;;;;;;5027196;28;20033;-64
2023/05/21 08:39:45;;;;;;;8.85;5.50;;;16.30;99.90;;;;;;5030548;28;20069;-64
2023/05/21 08:42:25;;;;;;;8.82;5.13;;;16.40;99.90;;;;;;5024008;28;20077;-64
2023/05/21 08:44:53;;;;;;;7.82;5.30;;;16.40;99.90;;;;;;5033204;28;20549;-64
2023/05/21 08:47:22;;;;;;;8.40;4.88;;;16.40;99.90;;;;;;5033049;28;20402;-64
2023/05/21 08:49:49;;;;;;;7.35;4.97;;;16.60;99.90;;;;;;5033459;28;20038;-64
2023/05/21 08:52:15;;;;;;;8.35;5.20;;;16.70;99.90;;;;;;5033881;28;20037;-66
2023/05/21 08:54:42;;;;;;;7.82;4.72;;;17.00;99.90;;;;;;5034197;28;20073;-65
2023/05/21 08:57:08;;;;;;;10.02;5.40;;;17.30;99.90;;;;;;5015345;28;20761;-65
2023/05/21 08:59:36;;;;;;;9.43;4.72;;;17.50;99.90;;;;;;5027335;28;20527;-64
2023/05/21 09:02:03;;;;;;;10.15;5.90;;;17.70;99.90;;;;;;5028677;28;20075;-65
2023/05/21 09:04:30;;;;;;;10.05;5.40;;;17.70;99.90;;;;;;5028168;28;20504;-66
2023/05/21 09:06:58;;;;;;;8.38;4.47;;;17.80;99.90;;;;;;5024953;28;20429;-65
2023/05/21 09:09:51;;;;;;;9.18;5.82;;;17.70;99.90;;;;;;5015734;28;20038;-65
2023/05/21 09:12:17;;;;;;;9.23;6.03;;;17.80;99.90;;;;;;5029579;28;20075;-66
2023/05/21 09:14:42;;;;;;;9.05;5.45;;;17.80;99.90;;;;;;5033115;28;20049;-65
2023/05/21 09:17:11;;;;;;;12.23;5.88;;;18.00;99.90;;;;;;5031457;28;20128;-64
2023/05/21 09:19:37;;;;;;;7.95;5.13;;;18.10;99.90;;;;;;5026343;28;20176;-65
2023/05/21 09:22:03;;;;;;;7.85;5.80;;;18.20;99.90;;;;;;5031211;28;20465;-64
2023/05/21 09:24:32;;;;;;;10.43;5.82;;;18.20;99.90;;;;;;5031604;28;20038;-67
2023/05/21 09:26:58;;;;;;;9.50;5.60;;;18.30;99.90;;;;;;5031544;28;20128;-65
2023/05/21 09:29:25;;;;;;;10.52;6.35;;;18.20;99.90;;;;;;5032687;28;20113;-66
2023/05/21 09:31:50;;;;;;;12.00;6.40;;;18.20;99.90;;;;;;5032581;28;20040;-65
2023/05/21 09:34:16;;;;;;;11.30;6.10;;;18.10;99.90;;;;;;5033651;28;20041;-65
2023/05/21 09:36:42;;;;;;;8.57;6.35;;;18.10;99.90;;;;;;5032342;28;20045;-66
2023/05/21 09:39:10;;;;;;;9.77;6.60;;;18.10;99.90;;;;;;5030029;28;20048;-66
2023/05/21 09:41:37;;;;;;;10.50;5.72;;;18.20;99.90;;;;;;5029869;28;20483;-65
2023/05/21 09:44:02;;;;;;;13.68;7.00;;;18.20;99.90;;;;;;5030844;28;20033;-65
2023/05/21 09:46:37;;;;;;;10.77;7.13;;;18.20;99.90;;;;;;5032327;28;20060;-65
2023/05/21 09:49:03;;;;;;;11.90;7.82;;;18.20;99.90;;;;;;5029414;28;20398;-65
2023/05/21 09:51:28;;;;;;;12.77;7.60;;;18.20;99.90;;;;;;5030530;28;20033;-65
2023/05/21 09:53:58;;;;;;;12.77;8.60;;;18.10;99.90;;;;;;5032420;28;20041;-65
2023/05/21 09:56:26;;;;;;;17.50;8.10;;;18.10;99.90;;;;;;5033870;28;20041;-66
2023/05/21 09:58:53;;;;;;;13.32;8.13;;;18.30;99.90;;;;;;5033718;28;20033;-66
2023/05/21 10:01:20;;;;;;;14.85;8.70;;;18.40;99.90;;;;;;5030518;28;20033;-66
2023/05/21 10:03:50;;;;;;;14.68;9.13;;;18.50;99.90;;;;;;5031363;28;20041;-66
2023/05/21 10:06:17;;;;;;;16.13;9.10;;;18.60;99.90;;;;;;5033522;28;20116;-65
2023/05/21 10:08:46;;;;;;;12.35;8.98;;;18.80;99.90;;;;;;5040358;28;20045;-65
2023/05/21 10:11:13;;;;;;;15.57;8.50;;;18.90;99.90;;;;;;5033272;28;20163;-66
2023/05/21 10:13:43;;;;;;;13.82;9.02;;;18.80;99.90;;;;;;5030362;28;20037;-64
2023/05/21 10:16:09;;;;;;;14.90;8.80;;;18.70;99.90;;;;;;5033619;28;20564;-64
2023/05/21 10:18:38;;;;;;;14.50;8.73;;;18.70;99.90;;;;;;5032818;28;20547;-63
2023/05/21 10:21:05;;;;;;;14.95;9.43;;;18.70;99.90;;;;;;5033119;28;20041;-64
2023/05/21 10:23:33;;;;;;;14.63;9.65;;;18.80;99.90;;;;;;5029798;28;20430;-64
2023/05/21 10:26:00;;;;;;;14.05;9.10;;;18.90;99.90;;;;;;5032426;28;20120;-63
2023/05/21 10:28:27;;;;;;;14.98;8.80;;;18.90;99.90;;;;;;5033781;28;20045;-63
2023/05/21 10:30:53;;;;;;;12.10;8.48;;;19.00;99.90;;;;;;5032323;28;20496;-63
2023/05/21 10:33:20;;;;;;;15.98;9.15;;;19.10;99.90;;;;;;5029277;28;20060;-64
2023/05/21 10:35:47;;;;;;;12.60;8.43;;;19.20;99.90;;;;;;5033305;28;20084;-63
2023/05/21 10:38:13;;;;;;;19.20;10.95;;;19.20;99.90;;;;;;5030950;28;20038;-64
2023/05/21 10:40:39;;;;;;;18.35;11.43;;;19.20;99.90;;;;;;5030825;28;20462;-63
2023/05/21 10:43:23;;;;;;;15.77;10.60;;;19.30;99.90;;;;;;5026488;28;20035;-63
2023/05/21 10:46:07;;;;;;;15.13;10.82;;;19.30;99.90;;;;;;5034614;28;20073;-64
2023/05/21 10:48:42;;;;;;;16.02;11.63;;;19.30;99.90;;;;;;5031764;28;20049;-64
2023/05/21 10:51:27;;;;;;;17.08;10.43;;;19.60;99.90;;;;;;5030737;28;21478;-64
2023/05/21 10:53:59;;;;;;;15.75;11.02;;;19.60;99.90;;;;;;5029751;28;20056;-64
2023/05/21 10:56:29;;;;;;;17.55;11.63;;;19.70;99.90;;;;;;5026947;28;20531;-63
2023/05/21 10:59:17;;;;;;;14.88;11.05;;;19.70;99.90;;;;;;5024219;28;20087;-63
2023/05/21 11:01:43;;;;;;;18.27;12.20;;;20.00;99.90;;;;;;5029710;28;20050;-64
2023/05/21 11:04:11;;;;;;;17.05;12.27;;;20.10;99.90;;;;;;5032245;28;20037;-63
2023/05/21 11:06:37;;;;;;;18.30;12.32;;;20.10;99.90;;;;;;5032049;28;20037;-63
2023/05/21 11:09:12;;;;;;;17.08;11.80;;;20.10;99.90;;;;;;5029778;28;20052;-64
2023/05/21 11:11:43;;;;;;;17.23;11.95;;;20.00;99.90;;;;;;5019891;28;20064;-64
2023/05/21 11:14:27;;;;;;;;;;;20.00;99.90;;;;;;5027635;28;20045;-64
2023/05/21 11:16:53;;;;;;;17.55;11.50;;;19.90;99.90;;;;;;5028665;28;19921;-64
2023/05/21 11:19:19;;;;;;;26.27;14.00;;;20.00;99.90;;;;;;5032864;28;20068;-63
2023/05/21 11:21:51;;;;;;;19.92;12.77;;;20.00;99.90;;;;;;5031950;28;20065;-64
2023/05/21 11:24:20;;;;;;;21.50;14.48;;;20.00;99.90;;;;;;5024686;28;20521;-63
2023/05/21 11:26:48;;;;;;;20.60;13.68;;;20.10;99.90;;;;;;5032400;28;20048;-63
2023/05/21 11:29:15;;;;;;;22.13;14.88;;;20.30;99.90;;;;;;5020866;28;20037;-63
2023/05/21 11:32:02;;;;;;;24.30;15.70;;;20.50;99.90;;;;;;5032632;28;20037;-64
2023/05/21 11:34:49;;;;;;;17.55;12.80;;;20.60;99.90;;;;;;5031302;28;20041;-64
2023/05/21 11:37:17;;;;;;;19.15;13.45;;;20.80;99.90;;;;;;5029740;28;20107;-64
2023/05/21 11:39:44;;;;;;;24.90;13.85;;;20.90;99.90;;;;;;5031170;28;20033;-64
2023/05/21 11:42:10;;;;;;;21.83;14.77;;;20.90;99.90;;;;;;5030245;28;20049;-64
2023/05/21 11:44:43;;;;;;;20.30;13.95;;;21.00;99.90;;;;;;5031135;28;20038;-64
2023/05/21 11:47:10;;;;;;;18.25;12.57;;;21.10;99.90;;;;;;5029356;28;20083;-64
2023/05/21 11:49:36;;;;;;;20.65;13.70;;;21.10;99.90;;;;;;5032321;28;20067;-63
2023/05/21 11:52:04;;;;;;;20.20;14.00;;;21.20;99.90;;;;;;5029039;28;20033;-64
2023/05/21 11:54:36;;;;;;;21.90;14.30;;;21.10;99.90;;;;;;5007665;28;20052;-64
2023/05/21 11:57:08;;;;;;;20.17;13.05;;;21.20;99.90;;;;;;5030698;28;20046;-64
2023/05/21 11:59:35;;;;;;;20.20;14.43;;;21.10;99.90;;;;;;5030942;28;20042;-63
2023/05/21 12:02:01;;;;;;;20.48;14.07;;;21.10;99.90;;;;;;5028120;28;20045;-63
2023/05/21 12:04:31;;;;;;;23.92;15.02;;;21.30;99.90;;;;;;5025125;28;20057;-63
2023/05/21 12:06:57;;;;;;;22.00;15.02;;;21.40;99.90;;;;;;5027480;28;20041;-63
2023/05/21 12:09:23;;;;;;;21.25;15.68;;;21.40;99.90;;;;;;5027691;28;20045;-64
2023/05/21 12:11:50;;;;;;;23.48;14.98;;;21.50;99.90;;;;;;5029716;28;20457;-64
2023/05/21 12:14:16;;;;;;;22.98;15.98;;;21.50;99.90;;;;;;5031500;28;20120;-63
2023/05/21 12:16:42;;;;;;;23.40;15.52;;;21.50;99.90;;;;;;5028983;28;20124;-63
2023/05/21 12:19:08;;;;;;;22.35;14.88;;;21.50;99.90;;;;;;5023716;28;20033;-63
2023/05/21 12:21:34;;;;;;;21.85;14.15;;;21.50;99.90;;;;;;5028471;28;20037;-64
2023/05/21 12:24:01;;;;;;;22.17;14.77;;;21.50;99.90;;;;;;5028902;28;20063;-64
2023/05/21 12:26:27;;;;;;;22.17;15.13;;;21.50;99.90;;;;;;5028785;28;20033;-64
2023/05/21 12:28:54;;;;;;;22.10;15.52;;;21.70;99.90;;;;;;5031740;28;20037;-64
2023/05/21 12:31:21;;;;;;;23.92;15.70;;;21.80;99.90;;;;;;5030079;28;20091;-64
2023/05/21 12:33:50;;;;;;;19.98;14.57;;;21.90;99.90;;;;;;5031595;28;20041;-63
2023/05/21 12:36:26;;;;;;;20.65;14.65;;;21.90;99.90;;;;;;5031265;28;20048;-64
2023/05/21 12:38:52;;;;;;;22.63;15.13;;;22.00;99.90;;;;;;5030236;28;20566;-64
2023/05/21 12:41:18;;;;;;;26.27;15.68;;;21.90;99.90;;;;;;5031006;28;20518;-64
2023/05/21 12:43:45;;;;;;;23.23;16.42;;;21.80;99.90;;;;;;5031547;28;20037;-64